createdAt,value
2022-10-18T00:00:21.573Z,8.30
2022-10-18T00:02:54.044Z,8.20
2022-10-18T00:05:42.744Z,8.39
2022-10-18T00:08:23.437Z,8.43
2022-10-18T00:11:00.212Z,8.32
2022-10-18T00:13:37.601Z,8.37
2022-10-18T00:16:14.354Z,8.40
2022-10-18T00:18:54.548Z,8.14
2022-10-18T00:21:34.901Z,8.20
2022-10-18T00:24:12.637Z,8.23
2022-10-18T00:26:47.566Z,8.23
2022-10-18T00:29:21.489Z,8.39
2022-10-18T00:31:55.710Z,8.18
2022-10-18T00:34:31.494Z,8.42
2022-10-18T00:37:12.644Z,8.17
2022-10-18T00:39:55.157Z,8.41
2022-10-18T00:42:31.232Z,8.35
2022-10-18T00:45:15.131Z,8.37
2022-10-18T00:47:47.120Z,8.31
2022-10-18T00:50:29.717Z,8.27
2022-10-18T00:53:11.452Z,8.19
2022-10-18T00:55:44.611Z,8.18
2022-10-18T00:58:20.326Z,8.11
2022-10-18T01:00:59.440Z,8.35
2022-10-18T01:03:51.362Z,8.15
2022-10-18T01:06:29.463Z,8.14
2022-10-18T01:09:46.702Z,8.13
2022-10-18T01:13:03.842Z,8.32
2022-10-18T01:16:06.707Z,8.31
2022-10-18T01:18:59.693Z,8.28
2022-10-18T01:21:46.345Z,8.24
2022-10-18T01:24:56.139Z,8.17
2022-10-18T01:27:54.715Z,8.01
2022-10-18T01:31:00.566Z,8.25
2022-10-18T01:33:39.730Z,8.24
2022-10-18T01:40:40.725Z,8.21
2022-10-18T01:43:30.986Z,8.16
2022-10-18T01:46:12.897Z,8.13
2022-10-18T01:48:44.734Z,8.00
2022-10-18T01:51:28.795Z,8.02
2022-10-18T01:54:01.271Z,8.00
2022-10-18T01:56:59.825Z,8.09
2022-10-18T01:59:33.536Z,8.20
2022-10-18T02:02:13.049Z,8.08
2022-10-18T02:05:03.543Z,8.20
2022-10-18T02:08:23.142Z,8.11
2022-10-18T02:11:12.254Z,8.06
2022-10-18T02:13:48.737Z,8.11
2022-10-18T02:16:37.810Z,8.00
2022-10-18T02:19:48.462Z,7.97
2022-10-18T02:22:34.230Z,7.99
2022-10-18T02:25:17.398Z,8.07
2022-10-18T02:31:17.226Z,8.21
2022-10-18T02:34:23.714Z,8.17
2022-10-18T02:37:00.250Z,8.08
2022-10-18T02:39:54.027Z,8.03
2022-10-18T02:42:48.563Z,7.97
2022-10-18T02:45:37.353Z,8.04
2022-10-18T02:48:27.969Z,7.94
2022-10-18T02:51:36.052Z,8.14
2022-10-18T02:54:11.396Z,7.88
2022-10-18T02:56:55.376Z,8.11
2022-10-18T02:59:35.229Z,8.07
2022-10-18T03:02:13.006Z,8.06
2022-10-18T03:04:45.586Z,8.02
2022-10-18T03:07:29.760Z,7.94
2022-10-18T03:10:35.193Z,7.95
2022-10-18T03:13:40.085Z,8.09
2022-10-18T03:16:12.919Z,7.88
2022-10-18T03:18:45.917Z,7.99
2022-10-18T03:21:16.234Z,8.12
2022-10-18T03:23:46.149Z,8.03
2022-10-18T03:26:19.968Z,7.88
2022-10-18T03:28:52.994Z,8.02
2022-10-18T03:31:20.981Z,7.87
2022-10-18T03:33:50.961Z,7.76
2022-10-18T03:36:23.813Z,7.89
2022-10-18T03:38:52.932Z,7.78
2022-10-18T03:41:22.817Z,7.80
2022-10-18T03:43:51.306Z,8.01
2022-10-18T03:46:30.168Z,7.92
2022-10-18T03:55:17.184Z,7.79
2022-10-18T03:58:24.631Z,7.68
2022-10-18T04:46:34.428Z,7.96
2022-10-18T05:17:20.847Z,7.86
2022-10-18T05:20:47.845Z,7.73
2022-10-18T05:36:35.319Z,8.06
2022-10-18T05:39:06.295Z,8.01
2022-10-18T05:41:35.037Z,7.90
2022-10-18T06:36:20.917Z,7.88
2022-10-18T06:43:20.492Z,7.66
2022-10-18T06:46:39.646Z,7.51
2022-10-18T06:49:19.127Z,7.51
2022-10-18T06:52:31.688Z,7.61
2022-10-18T06:55:49.730Z,7.29
2022-10-18T07:05:49.163Z,7.25
2022-10-18T07:08:43.324Z,7.46
2022-10-18T07:11:57.099Z,7.14
2022-10-18T07:14:29.859Z,7.37
2022-10-18T07:17:14.210Z,7.32
2022-10-18T07:19:53.522Z,7.45
2022-10-18T07:23:29.404Z,7.34
2022-10-18T07:26:35.246Z,7.43
2022-10-18T07:37:14.935Z,7.12
2022-10-18T07:41:09.070Z,7.42
2022-10-18T07:44:56.186Z,7.30
2022-10-18T08:09:06.057Z,7.23
2022-10-18T08:12:15.559Z,7.49
2022-10-18T08:15:28.700Z,7.27
2022-10-18T08:20:04.746Z,7.33
2022-10-18T08:26:41.766Z,7.51
2022-10-18T08:29:53.743Z,7.28
2022-10-18T08:33:24.222Z,7.34
2022-10-18T08:36:24.228Z,7.26
2022-10-18T09:00:48.848Z,6.98
2022-10-18T09:11:57.999Z,7.44
2022-10-18T09:26:40.351Z,7.29
2022-10-18T09:34:18.669Z,7.54
2022-10-18T10:51:29.366Z,9.64
2022-10-18T11:21:23.821Z,10.77
2022-10-18T12:57:38.090Z,11.70
2022-10-18T13:09:32.714Z,11.81
2022-10-18T13:16:18.046Z,11.76
2022-10-18T13:20:39.568Z,11.71
2022-10-18T14:18:53.103Z,11.60
2022-10-18T14:22:39.549Z,11.45
2022-10-18T14:25:34.356Z,11.63
2022-10-18T14:32:11.644Z,11.60
2022-10-18T14:35:55.698Z,11.42
2022-10-18T14:39:19.681Z,11.31
2022-10-18T14:43:23.674Z,11.50
2022-10-18T14:47:01.229Z,11.56
2022-10-18T14:50:24.922Z,11.44
2022-10-18T14:53:43.740Z,11.44
2022-10-18T14:56:45.493Z,11.38
2022-10-18T14:59:46.446Z,11.36
2022-10-18T15:03:45.258Z,11.49
2022-10-18T15:07:21.951Z,11.33
2022-10-18T15:10:43.249Z,11.42
2022-10-18T15:13:35.174Z,11.19
2022-10-18T15:17:01.397Z,11.14
2022-10-18T15:20:57.303Z,11.25
2022-10-18T15:24:14.281Z,11.20
2022-10-18T15:32:01.987Z,11.18
2022-10-18T15:35:33.042Z,11.20
2022-10-18T15:59:04.108Z,11.23
2022-10-18T16:02:34.704Z,11.16
2022-10-18T16:05:34.263Z,11.14
2022-10-18T16:08:39.946Z,11.21
2022-10-18T16:32:14.254Z,10.84
2022-10-18T16:39:26.329Z,10.61
2022-10-18T16:42:43.098Z,10.79
2022-10-18T16:45:35.328Z,10.51
2022-10-18T16:48:35.826Z,10.38
2022-10-18T16:52:08.881Z,10.59
2022-10-18T16:58:10.586Z,10.53
2022-10-18T17:01:32.857Z,10.45
2022-10-18T17:04:10.771Z,10.31
2022-10-18T17:10:17.429Z,10.21
2022-10-18T17:12:59.696Z,10.07
2022-10-18T17:16:22.246Z,9.99
2022-10-18T17:19:01.088Z,9.84
2022-10-18T17:21:35.062Z,9.83
2022-10-18T17:24:20.280Z,9.96
2022-10-18T17:26:56.554Z,9.85
2022-10-18T17:29:35.763Z,9.95
2022-10-18T17:32:06.360Z,10.01
2022-10-18T17:34:38.623Z,9.77
2022-10-18T17:37:26.921Z,9.81
2022-10-18T17:40:30.730Z,9.98
2022-10-18T17:42:59.425Z,9.97
2022-10-18T17:45:56.984Z,9.87
2022-10-18T17:48:32.017Z,9.79
2022-10-18T17:51:30.872Z,9.71
2022-10-18T17:54:06.926Z,9.74
2022-10-18T17:56:40.442Z,9.85
2022-10-18T17:59:12.777Z,9.87
2022-10-18T18:01:44.380Z,9.56
2022-10-18T18:04:32.057Z,9.60
2022-10-18T18:07:05.796Z,9.79
2022-10-18T18:09:36.737Z,9.62
2022-10-18T18:12:04.676Z,9.71
2022-10-18T18:14:34.642Z,9.70
2022-10-18T18:17:24.639Z,9.88
2022-10-18T18:20:08.574Z,9.58
2022-10-18T18:23:24.557Z,9.72
2022-10-18T18:26:22.958Z,9.43
2022-10-18T18:28:53.244Z,9.56
2022-10-18T18:31:30.742Z,9.53
2022-10-18T18:34:21.270Z,9.33
2022-10-18T18:37:02.694Z,9.47
2022-10-18T18:39:55.580Z,9.33
2022-10-18T18:42:40.347Z,9.40
2022-10-18T18:45:54.727Z,9.40
2022-10-18T18:49:06.152Z,9.57
2022-10-18T18:51:50.522Z,9.49
2022-10-18T18:54:25.436Z,9.63
2022-10-18T18:56:57.655Z,9.47
2022-10-18T18:59:33.421Z,9.38
2022-10-18T19:02:01.148Z,9.39
2022-10-18T19:07:55.843Z,9.39
2022-10-18T19:10:26.659Z,9.22
2022-10-18T19:12:58.641Z,9.17
2022-10-18T19:15:26.034Z,9.26
2022-10-18T19:17:53.677Z,9.19
2022-10-18T19:20:23.664Z,9.18
2022-10-18T19:22:51.617Z,9.07
2022-10-18T19:25:21.112Z,9.14
2022-10-18T19:27:51.072Z,9.01
2022-10-18T19:30:20.785Z,9.01
2022-10-18T19:32:48.145Z,9.07
2022-10-18T19:35:16.461Z,9.11
2022-10-18T19:37:43.761Z,9.11
2022-10-18T19:40:15.261Z,9.14
2022-10-18T19:42:43.490Z,9.19
2022-10-18T19:45:11.037Z,9.28
2022-10-18T19:47:39.679Z,9.23
2022-10-18T19:50:13.474Z,9.15
2022-10-18T19:52:41.051Z,9.20
2022-10-18T19:55:08.746Z,9.22
2022-10-18T19:57:43.391Z,9.27
2022-10-18T20:05:06.212Z,9.37
2022-10-18T20:07:38.168Z,9.27
2022-10-18T20:10:06.645Z,9.30
2022-10-18T20:12:39.473Z,9.26
2022-10-18T20:15:09.144Z,9.46
2022-10-18T20:17:36.354Z,9.32
2022-10-18T20:20:07.524Z,9.30
2022-10-18T20:22:37.950Z,9.16
2022-10-18T20:25:05.578Z,9.41
2022-10-18T20:27:33.341Z,9.23
2022-10-18T20:30:01.498Z,9.21
2022-10-18T20:32:29.774Z,9.27
2022-10-18T20:34:58.282Z,9.07
2022-10-18T20:37:25.608Z,9.02
2022-10-18T20:39:55.273Z,9.05
2022-10-18T20:42:25.072Z,9.04
2022-10-18T20:44:52.455Z,9.17
2022-10-18T20:47:19.829Z,9.18
2022-10-18T20:49:49.641Z,9.04
2022-10-18T20:52:17.059Z,9.12
2022-10-18T20:54:45.416Z,9.09
2022-10-18T20:57:12.747Z,9.05
2022-10-18T20:59:42.249Z,9.13
2022-10-18T21:02:13.032Z,9.27
2022-10-18T21:04:42.731Z,9.15
2022-10-18T21:07:10.155Z,9.13
2022-10-18T21:09:38.542Z,9.20
2022-10-18T21:12:05.903Z,9.32
2022-10-18T21:14:33.642Z,9.40
2022-10-18T21:17:01.892Z,9.34
2022-10-18T21:19:30.630Z,9.32
2022-10-18T21:21:58.758Z,9.22
2022-10-18T21:24:29.608Z,9.26
2022-10-18T21:26:57.271Z,9.20
2022-10-18T21:29:25.091Z,9.19
2022-10-18T21:31:58.653Z,9.32
2022-10-18T21:34:26.563Z,9.07
2022-10-18T21:36:55.580Z,9.16
2022-10-18T21:39:25.318Z,9.32
2022-10-18T21:41:53.073Z,9.81
2022-10-18T21:44:28.062Z,9.80
2022-10-18T21:46:55.719Z,9.64
2022-10-18T21:49:25.283Z,9.49
2022-10-18T21:51:52.892Z,9.48
2022-10-18T21:54:23.045Z,9.35
2022-10-18T21:56:53.080Z,9.34
2022-10-18T21:59:21.585Z,9.28
2022-10-18T22:01:49.094Z,9.16
2022-10-18T22:04:20.361Z,9.18
2022-10-18T22:06:50.111Z,9.17
2022-10-18T22:09:23.554Z,9.25
2022-10-18T22:11:55.229Z,9.09
2022-10-18T22:14:23.386Z,9.16
2022-10-18T22:16:51.285Z,9.18
2022-10-18T22:19:19.733Z,9.28
2022-10-18T22:21:47.190Z,9.11
2022-10-18T22:24:15.119Z,9.28
2022-10-18T22:26:43.617Z,9.31
2022-10-18T22:29:16.579Z,9.30
2022-10-18T22:31:50.970Z,9.20
2022-10-18T22:34:23.519Z,9.04
2022-10-18T22:36:51.657Z,9.09
2022-10-18T22:39:24.969Z,9.28
2022-10-18T22:41:56.539Z,9.15
2022-10-18T22:44:24.655Z,9.16
2022-10-18T22:46:52.065Z,9.24
2022-10-18T22:49:19.654Z,9.05
2022-10-18T22:51:49.943Z,9.02
2022-10-18T22:54:17.656Z,9.09
2022-10-18T22:56:45.172Z,9.04
2022-10-18T22:59:12.568Z,9.17
2022-10-18T23:01:43.010Z,9.17
2022-10-18T23:04:11.842Z,9.04
2022-10-18T23:06:40.300Z,9.21
2022-10-18T23:09:09.411Z,9.03
2022-10-18T23:11:40.236Z,9.09
2022-10-18T23:14:08.267Z,9.28
2022-10-18T23:16:35.929Z,9.17
2022-10-18T23:19:04.778Z,9.17
2022-10-18T23:21:34.065Z,9.09
2022-10-18T23:24:01.760Z,9.18
2022-10-18T23:26:32.264Z,9.30
2022-10-18T23:28:59.681Z,9.19
2022-10-18T23:31:30.737Z,9.08
2022-10-18T23:34:01.977Z,9.05
2022-10-18T23:36:34.275Z,9.17
2022-10-18T23:39:02.903Z,9.11
2022-10-18T23:42:00.066Z,9.23
2022-10-18T23:44:29.530Z,9.16
2022-10-18T23:46:56.944Z,9.09
2022-10-18T23:50:14.717Z,9.21
2022-10-18T23:52:41.929Z,9.16
2022-10-18T23:55:09.761Z,9.05
2022-10-18T23:57:37.053Z,9.07
